createdAt,value
2018-03-22T00:00:40.872Z,102305.63
2018-03-22T00:03:09.182Z,102300.25
2018-03-22T00:05:37.514Z,102291.09
2018-03-22T00:08:06.531Z,102282.58
2018-03-22T00:10:34.858Z,102274.70
2018-03-22T00:13:03.179Z,102273.30
2018-03-22T00:15:32.297Z,102270.64
2018-03-22T00:18:00.627Z,102271.00
2018-03-22T00:20:28.944Z,102258.16
2018-03-22T00:22:57.299Z,102260.39
2018-03-22T00:25:25.638Z,102259.89
2018-03-22T00:27:54.016Z,102251.86
2018-03-22T00:30:22.471Z,102250.60
2018-03-22T00:32:51.576Z,102237.97
2018-03-22T00:35:19.945Z,102240.33
2018-03-22T00:37:49.027Z,102234.54
2018-03-22T00:40:17.359Z,102237.63
2018-03-22T00:42:45.666Z,102226.59
2018-03-22T00:45:13.977Z,102218.64
2018-03-22T00:47:42.900Z,102218.22
2018-03-22T00:50:11.980Z,102204.47
2018-03-22T00:52:41.070Z,102199.02
2018-03-22T00:55:09.978Z,102198.74
2018-03-22T00:57:39.066Z,102190.51
2018-03-22T01:00:07.396Z,102189.87
2018-03-22T01:02:35.713Z,102191.14
2018-03-22T01:05:04.026Z,102191.20
2018-03-22T01:07:33.108Z,102191.39
2018-03-22T01:10:02.162Z,102188.73
2018-03-22T01:12:30.470Z,102188.66
2018-03-22T01:14:58.808Z,102184.41
2018-03-22T01:17:27.908Z,102192.09
2018-03-22T01:19:56.234Z,102172.36
2018-03-22T01:22:24.536Z,102166.49
2018-03-22T01:24:52.863Z,102156.30
2018-03-22T01:27:21.209Z,102137.03
2018-03-22T01:29:49.507Z,102133.95
2018-03-22T01:32:17.939Z,102127.33
2018-03-22T01:34:46.257Z,102123.56
2018-03-22T01:37:14.577Z,102118.19
2018-03-22T01:39:43.047Z,102109.39
2018-03-22T01:42:12.129Z,102115.56
2018-03-22T01:44:41.200Z,102110.89
2018-03-22T01:47:09.585Z,102122.97
2018-03-22T01:49:37.909Z,102112.14
2018-03-22T01:52:06.269Z,102115.73
2018-03-22T01:54:35.428Z,102105.26
2018-03-22T01:57:03.736Z,102086.75
2018-03-22T01:59:32.071Z,102064.22
2018-03-22T02:02:00.398Z,102069.24
2018-03-22T02:04:28.735Z,102054.72
2018-03-22T02:06:57.062Z,102051.16
2018-03-22T02:09:25.390Z,102054.43
2018-03-22T02:11:54.491Z,102056.87
2018-03-22T02:14:23.550Z,102067.91
2018-03-22T02:16:51.865Z,102072.03
2018-03-22T02:19:20.950Z,102058.62
2018-03-22T02:21:49.312Z,102034.39
2018-03-22T02:24:17.670Z,102024.13
2018-03-22T02:26:46.127Z,102015.95
2018-03-22T02:29:15.202Z,102018.55
2018-03-22T02:31:43.549Z,102013.97
2018-03-22T02:34:11.899Z,102017.61
2018-03-22T02:36:40.203Z,102016.77
2018-03-22T02:39:08.607Z,102012.79
2018-03-22T02:41:37.025Z,102005.25
2018-03-22T02:44:06.112Z,102015.09
2018-03-22T02:46:34.426Z,102005.61
2018-03-22T02:49:02.730Z,102016.66
2018-03-22T02:51:31.051Z,102007.27
2018-03-22T02:54:00.154Z,102007.90
2018-03-22T02:56:28.494Z,101997.08
2018-03-22T02:58:56.818Z,101998.55
2018-03-22T03:01:25.162Z,101989.48
2018-03-22T03:03:53.532Z,101992.84
2018-03-22T03:06:21.868Z,101986.25
2018-03-22T03:08:50.242Z,101969.71
2018-03-22T03:11:18.558Z,101970.14
2018-03-22T03:13:47.642Z,101966.28
2018-03-22T03:16:15.948Z,101976.75
2018-03-22T03:18:44.297Z,101961.83
2018-03-22T03:21:12.666Z,101956.91
2018-03-22T03:23:41.665Z,101956.98
2018-03-22T03:26:09.954Z,101950.08
2018-03-22T03:28:38.272Z,101947.71
2018-03-22T03:31:06.583Z,101941.02
2018-03-22T03:33:34.890Z,101931.92
2018-03-22T03:36:03.328Z,101921.52
2018-03-22T03:38:31.620Z,101925.08
2018-03-22T03:40:59.924Z,101927.18
2018-03-22T03:43:28.238Z,101910.09
2018-03-22T03:45:57.336Z,101905.77
2018-03-22T03:48:25.656Z,101912.30
2018-03-22T03:50:53.967Z,101904.06
2018-03-22T03:53:22.277Z,101897.78
2018-03-22T03:55:51.304Z,101892.21
2018-03-22T03:58:19.630Z,101896.12
2018-03-22T04:00:47.986Z,101893.88
2018-03-22T04:03:16.382Z,101894.30
2018-03-22T04:05:44.681Z,101892.00
2018-03-22T04:08:12.996Z,101879.66
2018-03-22T04:10:41.354Z,101884.36
2018-03-22T04:13:09.654Z,101886.10
2018-03-22T04:15:37.960Z,101879.83
2018-03-22T04:18:07.052Z,101876.12
2018-03-22T04:20:36.387Z,101871.80
2018-03-22T04:23:04.712Z,101873.82
2018-03-22T04:25:33.046Z,101862.80
2018-03-22T04:28:01.383Z,101870.47
2018-03-22T04:30:30.012Z,101862.17
2018-03-22T04:32:58.317Z,101858.19
2018-03-22T04:35:26.629Z,101859.31
2018-03-22T04:37:54.945Z,101854.84
2018-03-22T04:40:24.049Z,101853.87
2018-03-22T04:42:53.111Z,101847.94
2018-03-22T04:45:21.455Z,101842.43
2018-03-22T04:47:49.779Z,101850.09
2018-03-22T04:50:18.094Z,101841.38
2018-03-22T04:52:47.190Z,101833.84
2018-03-22T04:55:16.249Z,101834.95
2018-03-22T04:57:44.575Z,101825.26
2018-03-22T05:00:13.660Z,101826.72
2018-03-22T05:02:42.738Z,101821.72
2018-03-22T05:05:11.039Z,101815.02
2018-03-22T05:07:39.360Z,101813.06
2018-03-22T05:10:07.677Z,101804.20
2018-03-22T05:12:36.017Z,101801.27
2018-03-22T05:15:04.369Z,101797.06
2018-03-22T05:17:33.511Z,101797.12
2018-03-22T05:20:01.881Z,101785.50
2018-03-22T05:22:30.162Z,101790.23
2018-03-22T05:24:58.474Z,101796.80
2018-03-22T05:27:26.781Z,101786.95
2018-03-22T05:29:55.087Z,101783.93
2018-03-22T05:32:24.192Z,101789.16
2018-03-22T05:34:53.264Z,101789.92
2018-03-22T05:37:21.571Z,101782.16
2018-03-22T05:39:50.694Z,101784.14
2018-03-22T05:42:18.967Z,101769.73
2018-03-22T05:44:47.323Z,101776.95
2018-03-22T05:47:15.631Z,101775.05
2018-03-22T05:49:43.943Z,101772.26
2018-03-22T05:52:12.237Z,101774.34
2018-03-22T05:54:40.551Z,101772.80
2018-03-22T05:57:08.896Z,101774.24
2018-03-22T05:59:37.259Z,101766.79
2018-03-22T06:02:05.553Z,101765.66
2018-03-22T06:04:33.887Z,101769.83
2018-03-22T06:07:02.615Z,101770.86
2018-03-22T06:09:30.949Z,101774.70
2018-03-22T06:12:00.143Z,101759.66
2018-03-22T06:14:28.556Z,101765.73
2018-03-22T06:16:57.707Z,101762.52
2018-03-22T06:19:26.711Z,101758.57
2018-03-22T06:21:55.392Z,101761.49
2018-03-22T06:24:23.697Z,101757.70
2018-03-22T06:26:52.055Z,101757.37
2018-03-22T06:29:21.185Z,101752.86
2018-03-22T06:31:49.604Z,101749.25
2018-03-22T06:34:17.937Z,101746.75
2018-03-22T06:36:46.251Z,101750.24
2018-03-22T06:39:15.387Z,101743.98
2018-03-22T06:41:43.772Z,101741.67
2018-03-22T06:44:12.103Z,101740.87
2018-03-22T06:46:41.004Z,101747.59
2018-03-22T06:49:10.105Z,101742.30
2018-03-22T06:51:38.413Z,101728.45
2018-03-22T06:54:07.501Z,101728.98
2018-03-22T06:56:36.593Z,101725.34
2018-03-22T06:59:05.689Z,101726.28
2018-03-22T07:01:34.035Z,101731.46
2018-03-22T07:04:02.360Z,101731.95
2018-03-22T07:06:30.785Z,101727.50
2018-03-22T07:08:59.367Z,101724.04
2018-03-22T07:11:27.959Z,101728.13
2018-03-22T07:13:56.511Z,101722.05
2018-03-22T07:16:25.625Z,101718.48
2018-03-22T07:18:53.993Z,101723.64
2018-03-22T07:21:23.082Z,101718.43
2018-03-22T07:23:51.403Z,101716.37
2018-03-22T07:26:19.757Z,101718.14
2018-03-22T07:28:48.069Z,101722.98
2018-03-22T07:31:16.398Z,101730.98
2018-03-22T07:33:44.740Z,101732.56
2018-03-22T07:36:13.069Z,101737.69
2018-03-22T07:38:41.396Z,101729.22
2018-03-22T07:41:09.697Z,101740.45
2018-03-22T07:43:41.125Z,101732.76
2018-03-22T07:46:09.479Z,101735.41
2018-03-22T07:48:37.803Z,101727.78
2018-03-22T07:51:06.100Z,101732.46
2018-03-22T07:53:34.392Z,101730.88
2018-03-22T07:56:02.731Z,101736.80
2018-03-22T07:58:31.066Z,101739.69
2018-03-22T08:00:59.396Z,101734.39
2018-03-22T08:03:27.722Z,101741.80
2018-03-22T08:05:56.112Z,101729.00
2018-03-22T08:08:24.433Z,101724.41
2018-03-22T08:10:53.504Z,101730.31
2018-03-22T08:13:21.797Z,101731.41
2018-03-22T08:15:50.139Z,101733.31
2018-03-22T08:18:18.482Z,101733.58
2018-03-22T08:20:47.585Z,101732.64
2018-03-22T08:23:16.687Z,101733.66
2018-03-22T08:25:45.783Z,101718.41
2018-03-22T08:28:14.859Z,101726.28
2018-03-22T08:30:43.181Z,101722.95
2018-03-22T08:33:11.508Z,101729.50
2018-03-22T08:35:39.849Z,101729.91
2018-03-22T08:38:08.145Z,101738.57
2018-03-22T08:40:36.531Z,101726.58
2018-03-22T08:43:04.845Z,101728.50
2018-03-22T08:45:33.156Z,101736.04
2018-03-22T08:48:02.283Z,101718.72
2018-03-22T08:50:30.626Z,101711.59
2018-03-22T08:52:59.699Z,101717.89
2018-03-22T08:55:28.093Z,101721.67
2018-03-22T08:57:56.442Z,101716.70
2018-03-22T09:00:24.748Z,101726.41
2018-03-22T09:02:53.086Z,101736.28
2018-03-22T09:05:21.430Z,101731.11
2018-03-22T09:07:50.047Z,101724.50
2018-03-22T09:10:19.206Z,101719.28
2018-03-22T09:12:47.567Z,101720.92
2018-03-22T09:15:15.888Z,101716.70
2018-03-22T09:17:44.265Z,101714.11
2018-03-22T09:20:12.651Z,101721.14
2018-03-22T09:22:40.964Z,101731.88
2018-03-22T09:25:10.039Z,101725.08
2018-03-22T09:27:38.380Z,101736.64
2018-03-22T09:30:06.746Z,101730.33
2018-03-22T09:32:35.089Z,101725.06
2018-03-22T09:35:03.416Z,101726.17
2018-03-22T09:37:31.803Z,101728.61
2018-03-22T09:40:00.222Z,101727.63
2018-03-22T09:42:28.544Z,101733.27
2018-03-22T09:44:56.859Z,101737.81
2018-03-22T09:47:25.201Z,101730.53
2018-03-22T09:49:53.560Z,101725.77
2018-03-22T09:52:21.879Z,101720.42
2018-03-22T09:54:50.191Z,101708.29
2018-03-22T09:57:18.537Z,101711.06
2018-03-22T09:59:47.618Z,101725.91
2018-03-22T10:02:15.951Z,101726.14
2018-03-22T10:04:44.293Z,101715.45
2018-03-22T10:07:13.409Z,101714.47
2018-03-22T10:09:41.718Z,101714.95
2018-03-22T10:12:10.075Z,101720.64
2018-03-22T10:14:38.411Z,101712.86
2018-03-22T10:17:06.786Z,101720.39
2018-03-22T10:19:35.100Z,101706.66
2018-03-22T10:22:04.202Z,101710.97
2018-03-22T10:24:33.286Z,101706.39
2018-03-22T10:27:01.924Z,101697.87
2018-03-22T10:29:30.269Z,101705.03
2018-03-22T10:31:58.623Z,101713.64
2018-03-22T10:34:27.023Z,101701.09
2018-03-22T10:36:55.328Z,101716.62
2018-03-22T10:39:25.169Z,101716.72
2018-03-22T10:41:53.884Z,101709.38
2018-03-22T10:44:22.209Z,101721.17
2018-03-22T10:46:51.312Z,101713.95
2018-03-22T10:49:19.650Z,101714.97
2018-03-22T10:51:47.984Z,101715.69
2018-03-22T10:54:17.116Z,101715.59
2018-03-22T10:56:45.441Z,101710.42
2018-03-22T10:59:13.795Z,101712.13
2018-03-22T11:01:47.566Z,101713.22
2018-03-22T11:04:15.904Z,101704.47
2018-03-22T11:06:44.569Z,101704.31
2018-03-22T11:09:12.898Z,101711.36
2018-03-22T11:11:41.238Z,101708.61
2018-03-22T11:14:09.568Z,101706.39
2018-03-22T11:16:38.745Z,101698.73
2018-03-22T11:19:07.080Z,101694.78
2018-03-22T11:21:35.414Z,101699.77
2018-03-22T11:24:03.728Z,101702.04
2018-03-22T11:26:32.064Z,101695.78
2018-03-22T11:29:00.380Z,101692.79
2018-03-22T11:31:28.742Z,101685.63
2018-03-22T11:33:57.063Z,101686.81
2018-03-22T11:36:26.720Z,101686.06
2018-03-22T11:38:55.044Z,101685.69
2018-03-22T11:41:24.151Z,101681.87
2018-03-22T11:43:52.478Z,101678.14
2018-03-22T11:46:20.832Z,101679.52
2018-03-22T11:48:49.172Z,101671.08
2018-03-22T11:51:17.550Z,101679.56
2018-03-22T11:53:47.680Z,101674.70
2018-03-22T11:56:15.958Z,101671.37
2018-03-22T11:58:44.319Z,101678.39
2018-03-22T12:01:12.653Z,101667.11
2018-03-22T12:03:42.692Z,101678.39
2018-03-22T12:06:10.993Z,101666.14
2018-03-22T12:08:39.324Z,101659.52
2018-03-22T12:11:07.743Z,101651.75
2018-03-22T12:13:36.030Z,101657.61
2018-03-22T12:16:04.344Z,101648.77
2018-03-22T12:18:32.680Z,101653.20
2018-03-22T12:21:01.079Z,101647.20
2018-03-22T12:23:29.458Z,101653.34
2018-03-22T12:25:57.962Z,101653.70
2018-03-22T12:28:26.277Z,101650.06
2018-03-22T12:30:54.678Z,101650.16
2018-03-22T12:33:23.774Z,101657.26
2018-03-22T12:35:52.090Z,101644.00
2018-03-22T12:38:20.492Z,101642.59
2018-03-22T12:40:48.897Z,101638.08
2018-03-22T12:43:17.239Z,101639.91
2018-03-22T12:45:46.323Z,101646.24
2018-03-22T12:48:15.468Z,101638.09
2018-03-22T12:50:43.833Z,101646.35
2018-03-22T12:53:12.148Z,101637.80
2018-03-22T12:55:40.463Z,101635.36
2018-03-22T12:58:08.796Z,101630.14
2018-03-22T13:00:37.109Z,101628.02
2018-03-22T13:03:05.442Z,101628.11
2018-03-22T13:05:33.779Z,101616.83
2018-03-22T13:08:02.090Z,101622.66
2018-03-22T13:10:30.794Z,101616.91
2018-03-22T13:12:59.225Z,101614.91
2018-03-22T13:15:27.517Z,101606.18
2018-03-22T13:17:55.833Z,101614.22
2018-03-22T13:20:24.137Z,101605.48
2018-03-22T13:22:52.462Z,101606.91
2018-03-22T13:25:20.772Z,101599.06
2018-03-22T13:27:49.086Z,101593.86
2018-03-22T13:30:17.436Z,101593.70
2018-03-22T13:32:45.734Z,101589.95
2018-03-22T13:35:14.100Z,101597.52
2018-03-22T13:37:42.451Z,101596.69
2018-03-22T13:40:11.566Z,101597.91
2018-03-22T13:42:40.614Z,101589.75
2018-03-22T13:45:08.947Z,101589.42
2018-03-22T13:47:38.023Z,101590.66
2018-03-22T13:50:06.320Z,101600.59
2018-03-22T13:52:34.837Z,101596.17
2018-03-22T13:55:03.147Z,101590.09
2018-03-22T13:57:31.451Z,101596.06
2018-03-22T13:59:59.778Z,101591.44
2018-03-22T14:02:28.090Z,101584.84
2018-03-22T14:04:56.390Z,101590.52
2018-03-22T14:07:24.712Z,101579.91
2018-03-22T14:09:53.047Z,101581.38
2018-03-22T14:12:22.080Z,101588.10
2018-03-22T14:14:50.425Z,101580.49
2018-03-22T14:17:18.740Z,101577.27
2018-03-22T14:19:47.072Z,101573.16
2018-03-22T14:22:15.378Z,101574.02
2018-03-22T14:24:43.732Z,101569.51
2018-03-22T14:27:12.044Z,101565.17
2018-03-22T14:29:40.380Z,101564.04
2018-03-22T14:32:08.763Z,101566.85
2018-03-22T14:34:37.880Z,101562.03
2018-03-22T14:37:07.706Z,101571.49
2018-03-22T14:39:36.024Z,101565.40
2018-03-22T14:42:04.410Z,101567.08
2018-03-22T14:44:32.714Z,101567.12
2018-03-22T14:47:02.687Z,101570.05
2018-03-22T14:49:30.987Z,101556.58
2018-03-22T14:51:59.327Z,101564.63
2018-03-22T14:54:27.800Z,101571.45
2018-03-22T14:59:17.714Z,101575.69
2018-03-22T15:01:46.110Z,101559.45
2018-03-22T15:04:14.495Z,101555.59
2018-03-22T15:06:42.817Z,101560.52
2018-03-22T15:09:11.210Z,101562.79
2018-03-22T15:11:39.543Z,101566.20
2018-03-22T15:14:08.767Z,101563.67
2018-03-22T15:16:37.121Z,101558.80
2018-03-22T15:19:05.479Z,101560.34
2018-03-22T15:21:34.605Z,101558.86
2018-03-22T15:24:02.914Z,101560.48
2018-03-22T15:26:31.243Z,101573.83
2018-03-22T15:29:00.719Z,101572.63
2018-03-22T15:31:29.647Z,101569.50
2018-03-22T15:33:58.762Z,101579.87
2018-03-22T15:36:27.955Z,101585.97
2018-03-22T15:38:57.056Z,101581.59
2018-03-22T15:41:26.161Z,101583.84
2018-03-22T15:43:55.276Z,101571.38
2018-03-22T15:46:23.626Z,101572.66
2018-03-22T15:48:52.567Z,101570.20
2018-03-22T15:51:21.061Z,101575.29
2018-03-22T15:53:49.451Z,101572.14
2018-03-22T15:56:17.814Z,101566.44
2018-03-22T15:58:46.152Z,101566.45
2018-03-22T16:01:15.356Z,101566.38
2018-03-22T16:03:44.475Z,101565.61
2018-03-22T16:06:13.613Z,101564.55
2018-03-22T16:08:41.933Z,101569.45
2018-03-22T16:11:10.327Z,101571.03
2018-03-22T16:13:38.671Z,101573.17
2018-03-22T16:16:06.985Z,101572.44
2018-03-22T16:18:35.418Z,101570.47
2018-03-22T16:21:03.743Z,101571.59
2018-03-22T16:23:32.058Z,101569.72
2018-03-22T16:26:01.158Z,101564.27
2018-03-22T16:28:29.488Z,101574.25
2018-03-22T16:30:57.810Z,101566.09
2018-03-22T16:33:26.881Z,101559.03
2018-03-22T16:35:55.210Z,101548.04
2018-03-22T16:38:23.570Z,101562.01
2018-03-22T16:40:51.886Z,101559.67
2018-03-22T16:43:20.192Z,101552.92
2018-03-22T16:45:48.531Z,101554.14
2018-03-22T16:48:17.624Z,101551.73
2018-03-22T16:50:46.709Z,101545.66
2018-03-22T16:53:15.068Z,101555.41
2018-03-22T16:55:43.409Z,101554.50
2018-03-22T16:58:11.771Z,101560.22
2018-03-22T17:00:40.879Z,101552.44
2018-03-22T17:03:10.058Z,101543.06
2018-03-22T17:05:38.467Z,101549.94
2018-03-22T17:08:07.609Z,101550.14
2018-03-22T17:10:35.940Z,101545.25
2018-03-22T17:13:05.184Z,101544.73
2018-03-22T17:15:33.505Z,101550.58
2018-03-22T17:18:01.842Z,101547.28
2018-03-22T17:20:30.165Z,101548.55
2018-03-22T17:22:58.493Z,101546.20
2018-03-22T17:25:26.843Z,101547.41
2018-03-22T17:27:55.332Z,101545.52
2018-03-22T17:30:24.425Z,101542.09
2018-03-22T17:32:52.736Z,101544.39
2018-03-22T17:35:21.057Z,101547.84
2018-03-22T17:37:49.422Z,101545.56
2018-03-22T17:40:17.731Z,101544.15
2018-03-22T17:42:46.070Z,101547.94
2018-03-22T17:45:14.380Z,101550.99
2018-03-22T17:47:42.712Z,101552.41
2018-03-22T17:50:11.027Z,101544.31
2018-03-22T17:52:39.342Z,101553.08
2018-03-22T17:55:07.653Z,101552.09
2018-03-22T17:57:37.979Z,101555.03
2018-03-22T18:00:06.277Z,101549.45
2018-03-22T18:05:10.029Z,101546.88
2018-03-22T18:07:38.365Z,101540.20
2018-03-22T18:10:06.876Z,101541.52
2018-03-22T18:12:35.257Z,101546.09
2018-03-22T18:15:04.338Z,101544.38
2018-03-22T18:17:32.697Z,101546.23
2018-03-22T18:20:01.790Z,101536.87
2018-03-22T18:22:30.128Z,101542.96
2018-03-22T18:24:58.531Z,101544.02
2018-03-22T18:27:26.915Z,101534.88
2018-03-22T18:29:55.995Z,101529.69
2018-03-22T18:32:24.326Z,101529.67
2018-03-22T18:34:52.707Z,101529.53
2018-03-22T18:37:21.116Z,101525.10
2018-03-22T18:39:49.463Z,101525.74
2018-03-22T18:42:17.784Z,101522.14
2018-03-22T18:44:46.105Z,101522.76
2018-03-22T18:47:14.415Z,101518.84
2018-03-22T18:49:42.752Z,101511.28
2018-03-22T18:52:11.845Z,101517.93
2018-03-22T18:54:40.946Z,101517.23
2018-03-22T18:57:10.092Z,101521.64
2018-03-22T18:59:38.402Z,101520.88
2018-03-22T19:02:06.750Z,101524.33
2018-03-22T19:04:35.071Z,101521.58
2018-03-22T19:07:03.453Z,101512.33
2018-03-22T19:09:31.832Z,101510.12
2018-03-22T19:12:00.164Z,101508.88
2018-03-22T19:14:28.510Z,101515.61
2018-03-22T19:16:57.663Z,101506.44
2018-03-22T19:19:26.002Z,101505.31
2018-03-22T19:21:54.328Z,101499.64
2018-03-22T19:24:22.657Z,101498.30
2018-03-22T19:26:51.003Z,101497.75
2018-03-22T19:29:19.313Z,101499.41
2018-03-22T19:31:47.683Z,101500.23
2018-03-22T19:34:15.976Z,101502.55
2018-03-22T19:36:44.353Z,101500.46
2018-03-22T19:39:12.681Z,101498.95
2018-03-22T19:41:41.036Z,101497.47
2018-03-22T19:44:09.371Z,101495.14
2018-03-22T19:46:37.741Z,101492.75
2018-03-22T19:49:06.207Z,101485.57
2018-03-22T19:51:35.317Z,101487.97
2018-03-22T19:54:04.409Z,101488.89
2018-03-22T19:56:33.571Z,101486.97
2018-03-22T19:59:01.930Z,101487.38
2018-03-22T20:01:30.309Z,101482.97
2018-03-22T20:03:58.685Z,101478.97
2018-03-22T20:06:27.079Z,101476.48
2018-03-22T20:08:55.441Z,101466.67
2018-03-22T20:11:24.623Z,101471.85
2018-03-22T20:13:53.761Z,101475.94
2018-03-22T20:16:22.086Z,101476.68
2018-03-22T20:18:50.414Z,101474.50
2018-03-22T20:21:18.725Z,101474.39
2018-03-22T20:23:47.065Z,101463.02
2018-03-22T20:26:15.439Z,101463.17
2018-03-22T20:28:43.750Z,101455.25
2018-03-22T20:31:12.137Z,101451.07
2018-03-22T20:33:40.448Z,101447.55
2018-03-22T20:36:08.805Z,101454.84
2018-03-22T20:38:37.138Z,101459.50
2018-03-22T20:41:06.260Z,101454.80
2018-03-22T20:43:35.334Z,101454.73
2018-03-22T20:46:03.680Z,101456.63
2018-03-22T20:48:32.023Z,101458.95
2018-03-22T20:51:00.393Z,101456.60
2018-03-22T20:53:29.508Z,101451.86
2018-03-22T20:55:57.858Z,101455.71
2018-03-22T20:58:26.193Z,101459.09
2018-03-22T21:00:54.548Z,101456.16
2018-03-22T21:03:23.618Z,101450.58
2018-03-22T21:05:51.969Z,101448.41
2018-03-22T21:08:20.286Z,101447.97
2018-03-22T21:10:48.590Z,101451.55
2018-03-22T21:13:17.688Z,101445.72
2018-03-22T21:15:46.779Z,101447.64
2018-03-22T21:18:15.104Z,101450.63
2018-03-22T21:20:43.470Z,101444.14
2018-03-22T21:23:11.779Z,101446.30
2018-03-22T21:25:40.150Z,101441.06
2018-03-22T21:28:08.522Z,101447.59
2018-03-22T21:30:36.862Z,101437.75
2018-03-22T21:33:05.206Z,101435.73
2018-03-22T21:35:33.540Z,101441.48
2018-03-22T21:38:01.864Z,101436.24
2018-03-22T21:40:30.904Z,101430.14
2018-03-22T21:42:59.242Z,101424.92
2018-03-22T21:45:27.558Z,101425.93
2018-03-22T21:47:55.884Z,101420.59
2018-03-22T21:50:24.986Z,101420.03
2018-03-22T21:52:53.402Z,101415.71
2018-03-22T21:55:21.745Z,101416.63
2018-03-22T21:57:50.851Z,101411.80
2018-03-22T22:00:19.176Z,101406.86
2018-03-22T22:02:47.520Z,101407.63
2018-03-22T22:05:15.833Z,101400.31
2018-03-22T22:07:44.166Z,101391.84
2018-03-22T22:10:12.474Z,101388.02
2018-03-22T22:12:40.827Z,101386.98
2018-03-22T22:15:09.219Z,101382.98
2018-03-22T22:17:38.301Z,101384.94
2018-03-22T22:20:06.662Z,101382.45
2018-03-22T22:22:34.994Z,101379.78
2018-03-22T22:25:03.369Z,101378.36
2018-03-22T22:27:32.508Z,101374.88
2018-03-22T22:30:00.830Z,101362.20
2018-03-22T22:32:29.144Z,101361.88
2018-03-22T22:34:58.207Z,101355.95
2018-03-22T22:37:26.504Z,101356.78
2018-03-22T22:39:54.839Z,101352.20
2018-03-22T22:42:23.155Z,101353.86
2018-03-22T22:44:51.464Z,101350.36
2018-03-22T22:47:20.532Z,101342.22
2018-03-22T22:49:48.845Z,101335.56
2018-03-22T22:52:17.910Z,101341.13
2018-03-22T22:54:46.242Z,101335.80
2018-03-22T22:57:14.559Z,101326.23
2018-03-22T22:59:42.860Z,101330.05
2018-03-22T23:02:11.154Z,101327.39
2018-03-22T23:04:39.465Z,101318.39
2018-03-22T23:07:07.791Z,101307.83
2018-03-22T23:09:36.882Z,101312.98
2018-03-22T23:12:05.169Z,101300.57
2018-03-22T23:14:33.665Z,101297.81
2018-03-22T23:17:02.012Z,101296.66
2018-03-22T23:19:31.057Z,101298.41
2018-03-22T23:21:59.408Z,101288.11
2018-03-22T23:24:27.710Z,101289.95
2018-03-22T23:26:56.020Z,101287.10
2018-03-22T23:29:24.490Z,101279.44
2018-03-22T23:31:52.824Z,101274.52
2018-03-22T23:34:21.121Z,101274.11
2018-03-22T23:36:49.452Z,101274.11
2018-03-22T23:39:17.816Z,101274.84
2018-03-22T23:41:46.192Z,101271.91
2018-03-22T23:44:14.503Z,101271.64
2018-03-22T23:46:42.819Z,101264.72
2018-03-22T23:49:11.148Z,101258.88
2018-03-22T23:51:39.480Z,101254.73
2018-03-22T23:54:07.820Z,101254.78
2018-03-22T23:56:36.173Z,101245.45
2018-03-22T23:59:04.522Z,101237.88
